Flight Track Log - Related Links

Times and Time Zones

All times are in EDT time to prevent confusion due to time zone crossing. See the LXJ537 flight status page for this flight to view local times or setup timezone preferences in your user account.

Time Position Orientation Groundspeed Altitude Reporting Facility
EDT Latitude Longitude Course Direction KTS MPH feet Rate Location/Type
Thu 12:34:56 PM 40.7822 -96.6831 133° Southeast 263 303 5,400  Level Minneapolis Center
Thu 12:36:10 PM 40.8106 -96.5847 69° East 277 319 9,400 3,265 Climbing Minneapolis Center
Thu 12:37:12 PM 40.8403 -96.4558 73° East 291 335 12,800 3,000 Climbing Minneapolis Center
Thu 12:38:14 PM 40.8714 -96.3175 73° East 356 410 15,600 3,145 Climbing Minneapolis Center
Thu 12:39:16 PM 40.9011 -96.1847 73° East 375 432 19,300 3,242 Climbing Minneapolis Center
Thu 12:40:18 PM 40.9311 -96.0469 74° East 387 445 22,300 3,097 Climbing Minneapolis Center
Thu 12:41:20 PM 40.9636 -95.9025 73° East 404 465 25,700 2,274 Climbing Minneapolis Center
Thu 12:42:22 PM 40.9969 -95.7536 73° East 417 480 27,000 629 Climbing Minneapolis Center
Thu 12:43:24 PM 41.0389 -95.5594 74° East 450 518 27,000  Level Minneapolis Center
Thu 12:44:26 PM 41.0753 -95.3964 73° East 462 532 27,000  Level Minneapolis Center
Thu 12:45:28 PM 41.1106 -95.2328 74° East 463 533 27,000  Level Minneapolis Center
Thu 12:46:30 PM 41.1458 -95.0683 74° East 465 535 27,000  Level Minneapolis Center
Thu 12:47:45 PM 41.1858 -94.8736 75° East 461 531 27,000  Level Minneapolis Center
Thu 12:48:47 PM 41.2278 -94.6775 74° East 461 531 27,000  Level Minneapolis Center
Thu 12:49:49 PM 41.2614 -94.5128 75° East 461 531 27,000  Level Minneapolis Center
Thu 12:50:50 PM 41.2889 -94.3769 75° East 469 540 27,000  Level Minneapolis Center
Thu 12:51:53 PM 41.3311 -94.1714 75° East 476 548 27,000  Level Minneapolis Center
Thu 12:52:55 PM 41.3667 -94.0017 74° East 477 549 27,000  Level Minneapolis Center
Thu 12:53:57 PM 41.4011 -93.8325 75° East 477 549 27,000  Level Minneapolis Center
Thu 12:54:59 PM 41.4433 -93.6306 74° East 476 548 27,000  Level Minneapolis Center
Thu 12:56:01 PM 41.4986 -93.4733 65° Northeast 473 544 27,000  Level Minneapolis Center
Thu 12:57:15 PM 41.5522 -93.3150 66° East 471 542 27,000  Level Minneapolis Center
Thu 12:58:18 PM 41.6178 -93.1258 65° Northeast 470 541 27,000  Level Minneapolis Center
Thu 12:59:20 PM 41.6692 -92.9664 67° East 470 541 27,000  Level Minneapolis Center
Thu 01:00:22 PM 41.6889 -92.7894 81° East 474 545 27,000  Level Minneapolis Center
Thu 01:01:24 PM 41.7136 -92.5814 81° East 476 548 27,000  Level Minneapolis Center
Thu 01:02:04 PM 41.7253 -92.4767 81° East 474 545 27,000  Level Chicago Center
Thu 01:03:06 PM 41.7456 -92.3047 81° East 474 545 27,000  Level Chicago Center
Thu 01:04:08 PM 41.7644 -92.1306 82° East 478 550 27,000  Level Chicago Center
Thu 01:05:10 PM 41.7869 -91.9269 82° East 470 541 27,000  Level Chicago Center
Thu 01:06:12 PM 41.8050 -91.7525 82° East 476 548 27,000  Level Chicago Center
Thu 01:07:14 PM 41.8233 -91.5825 82° East 469 540 27,000  Level Chicago Center
Thu 01:08:16 PM 41.8414 -91.4128 82° East 467 537 27,000  Level Chicago Center
Thu 01:09:18 PM 41.8625 -91.2067 82° East 469 540 27,000  Level Chicago Center
Thu 01:10:20 PM 41.8789 -91.0350 83° East 470 541 27,000  Level Chicago Center
Thu 01:11:22 PM 41.8961 -90.8650 82° East 469 540 27,000  Level Chicago Center
Thu 01:12:24 PM 41.9128 -90.6942 82° East 470 541 27,000  Level Chicago Center
Thu 01:13:27 PM 41.9314 -90.4917 83° East 462 532 27,000  Level Chicago Center
Thu 01:14:29 PM 41.9478 -90.3211 83° East 465 535 27,000  Level Chicago Center
Thu 01:15:31 PM 41.9622 -90.1525 83° East 462 532 27,000  Level Chicago Center
Thu 01:16:33 PM 41.9781 -89.9808 83° East 466 536 27,000  Level Chicago Center
Thu 01:17:35 PM 41.9958 -89.7933 83° East 464 534 27,000  Level Chicago Center
Thu 01:18:37 PM 42.0106 -89.6222 83° East 464 534 27,000  Level Chicago Center
Thu 01:19:39 PM 42.0267 -89.4469 83° East 473 544 27,000  Level Chicago Center
Thu 01:20:41 PM 42.0447 -89.2436 83° East 461 531 27,000  Level Chicago Center
Thu 01:21:43 PM 42.0586 -89.0731 84° East 459 528 27,000  Level Chicago Center
Thu 01:22:45 PM 42.0728 -88.8969 84° East 461 531 27,000  Level Chicago Center
Thu 01:23:47 PM 42.0875 -88.7303 83° East 464 534 27,000  Level Chicago Center
Thu 01:24:50 PM 42.1000 -88.5575 84° East 464 534 27,000  Level Chicago Center
Thu 01:25:52 PM 42.1131 -88.3867 84° East 461 531 27,000  Level Chicago Center
Thu 01:26:54 PM 42.1289 -88.1792 84° East 462 532 27,000  Level Chicago Center
Thu 01:27:56 PM 42.1411 -88.0061 85° East 463 533 27,000  Level Chicago Center
Thu 01:28:58 PM 42.1539 -87.8347 84° East 461 531 27,000  Level Chicago Center
Thu 01:30:00 PM 42.1656 -87.6608 85° East 465 535 27,000 -48 Level Chicago Center
Thu 01:31:02 PM 42.1767 -87.4881 85° East 465 535 26,900 -1,016 Descending Chicago Center
Thu 01:32:04 PM 42.1883 -87.3172 85° East 460 529 24,900 -2,129 Descending Chicago Center
Thu 01:33:06 PM 42.2028 -87.1186 84° East 448 516 22,500 -2,177 Descending Chicago Center
Thu 01:34:08 PM 42.2106 -86.9558 86° East 439 505 20,400 -2,323 Descending Chicago Center
Thu 01:35:10 PM 42.2208 -86.7986 85° East 425 489 17,700 -2,710 Descending Chicago Center
Thu 01:36:12 PM 42.2311 -86.6372 85° East 399 459 14,800 -2,544 Descending Chicago Center
Thu 01:37:15 PM 42.2397 -86.5033 85° East 365 420 12,400 -1,776 Descending Chicago Center
Thu 01:38:17 PM 42.2464 -86.3786 86° East 340 391 11,100 -677 Descending Chicago Center
Thu 01:39:19 PM 42.2531 -86.2575 86° East 328 377 11,000 -48 Descending Chicago Center
Thu 01:40:21 PM 42.2597 -86.1411 86° East 316 364 11,000  Level Chicago Center
Thu 01:41:23 PM 42.2664 -86.0222 86° East 317 365 11,000 -435 Level Chicago Center
Thu 01:42:25 PM 42.2736 -85.8997 85° East 297 342 10,100 -1,645 Descending Chicago Center
Thu 01:43:27 PM 42.2794 -85.7867 86° East 281 323 7,600 -1,984 Descending Chicago Center
Thu 01:44:29 PM 42.2897 -85.6914 82° East 285 328 6,000 -1,306 Descending Chicago Center
Thu 01:45:31 PM 42.3183 -85.5769 71° East 274 315 4,900 -871 Descending Chicago Center
Thu 01:46:33 PM 42.3408 -85.4853 72° East 264 304 4,200 -532 Descending Chicago Center
Thu 01:47:35 PM 42.3642 -85.3961 70° East 256 295 3,800 -624 Descending Chicago Center
Thu 01:48:38 PM 42.3928 -85.3217 62° Northeast 234 269 2,900 -624 Descending Chicago Center
Thu 01:49:40 PM 42.4042 -85.2611 76° East 191 220 2,500 -242 Descending Chicago Center
Thu 01:50:42 PM 42.3669 -85.2064 133° Southeast 164 189 2,400 -484 Descending Chicago Center
Thu 01:51:44 PM 42.3350 -85.2194 197° South 145 167 1,500 -484 Descending Chicago Center
Thu 01:52:46 PM 42.3075 -85.2486 218° Southwest 141 162 1,400 -97 Descending Chicago Center

Login

Don't have an account? Register now (free) for customized features, flight alerts, and more!